Vries, Netherlands
Current Conditions -  °F | °C
As of 3:25 AM on Thursday 23 Oct 2014 (Local Time) from EHGG Reporting Station
Overcast Overcast  
Wind Chill: 46°   Ceiling: 4300
Heat Index: 48°   Visibility: 6mi
Dew Point: 45°   Wind: 6mph
Humidity: 87%   Direction: 220°SW
Pressure: 30.12"   Gusts: NA
Location:  53.07°N, 6.58°E
Report Text: EHGG 230125Z AUTO 22005KT 9999 SCT039 OVC043 09/07 Q1020
Loading
Personal Weather Stations






























Interactive Weather Map
Tropical Storm Tracking
New forecast layout! Learn more

10-Day Weather Forecast

Advertisements
Track Severe Weather on mobile